Terminal Aerodrome Forecast
Issued by NWS

Home | Current Version | Previous Version | Text Only | Print | Product List | Glossary On
Versions: 1 2 3 4 5 6 7 8 9 10 11 12 13 14 15 16 17 18 19 20 21 22 23 24 25 26 27 28 29 30
000
FTUS45 KPSR 301128
TAFPHX
TAF
KPHX 301128Z 3012/0112 10011KT P6SM SCT110
     FM301700 17015G24KT P6SM SCT090 BKN110
     FM302000 22015G24KT P6SM VCSH SCT080 BKN110
     FM302200 28015G25KT P6SM VCTS BKN080CB BKN110
     FM010300 26010KT P6SM VCSH BKN090
     FM010700 11008KT P6SM SCT070=

USA.gov is the U.S. government's official web portal to all federal, state and local government web resources and services.